sensor_id;sensor_type;location;lat;lon;timestamp;pressure;altitude;pressure_sealevel;temperature;humidity
14966;BME280;7577;45.226;5.798;2023-04-22T00:01:29;98448.21;;;21.94;40.87
14966;BME280;7577;45.226;5.798;2023-04-22T00:03:59;98448.78;;;21.93;40.83
14966;BME280;7577;45.226;5.798;2023-04-22T00:06:30;98452.72;;;21.92;40.82
14966;BME280;7577;45.226;5.798;2023-04-22T00:09:00;98446.00;;;21.93;40.79
14966;BME280;7577;45.226;5.798;2023-04-22T00:11:31;98441.18;;;21.90;40.74
14966;BME280;7577;45.226;5.798;2023-04-22T00:14:01;98448.33;;;21.91;40.76
14966;BME280;7577;45.226;5.798;2023-04-22T00:16:32;98441.18;;;21.90;40.78
14966;BME280;7577;45.226;5.798;2023-04-22T00:19:02;98449.25;;;21.89;40.74
14966;BME280;7577;45.226;5.798;2023-04-22T00:24:11;98451.67;;;21.91;40.70
14966;BME280;7577;45.226;5.798;2023-04-22T00:26:41;98461.16;;;21.90;40.67
14966;BME280;7577;45.226;5.798;2023-04-22T00:31:49;98447.30;;;21.90;40.62
14966;BME280;7577;45.226;5.798;2023-04-22T00:36:58;98455.17;;;21.88;40.61
14966;BME280;7577;45.226;5.798;2023-04-22T00:39:28;98462.67;;;21.87;40.63
14966;BME280;7577;45.226;5.798;2023-04-22T00:42:00;98456.42;;;21.84;40.56
14966;BME280;7577;45.226;5.798;2023-04-22T00:44:31;98454.25;;;21.84;40.58
14966;BME280;7577;45.226;5.798;2023-04-22T00:47:01;98450.66;;;21.83;40.60
14966;BME280;7577;45.226;5.798;2023-04-22T00:49:31;98447.89;;;21.83;40.60
14966;BME280;7577;45.226;5.798;2023-04-22T00:52:01;98447.89;;;21.83;40.59
14966;BME280;7577;45.226;5.798;2023-04-22T00:54:32;98452.64;;;21.83;40.58
14966;BME280;7577;45.226;5.798;2023-04-22T00:57:03;98450.44;;;21.82;40.59
14966;BME280;7577;45.226;5.798;2023-04-22T00:59:34;98448.58;;;21.80;40.56
14966;BME280;7577;45.226;5.798;2023-04-22T01:04:45;98440.26;;;21.80;40.61
14966;BME280;7577;45.226;5.798;2023-04-22T01:09:54;98438.30;;;21.81;40.56
14966;BME280;7577;45.226;5.798;2023-04-22T01:12:25;98435.09;;;21.79;40.52
14966;BME280;7577;45.226;5.798;2023-04-22T01:14:56;98438.65;;;21.79;40.50
14966;BME280;7577;45.226;5.798;2023-04-22T01:17:26;98434.84;;;21.78;40.45
14966;BME280;7577;45.226;5.798;2023-04-22T01:19:56;98428.72;;;21.78;40.46
14966;BME280;7577;45.226;5.798;2023-04-22T01:25:06;98419.84;;;21.79;40.49
14966;BME280;7577;45.226;5.798;2023-04-22T01:27:37;98417.98;;;21.77;40.49
14966;BME280;7577;45.226;5.798;2023-04-22T01:30:10;98417.98;;;21.77;40.49
14966;BME280;7577;45.226;5.798;2023-04-22T01:32:41;98424.34;;;21.77;40.50
14966;BME280;7577;45.226;5.798;2023-04-22T01:35:12;98426.08;;;21.76;40.45
14966;BME280;7577;45.226;5.798;2023-04-22T01:37:42;98426.89;;;21.76;40.46
14966;BME280;7577;45.226;5.798;2023-04-22T01:40:13;98432.78;;;21.75;40.43
14966;BME280;7577;45.226;5.798;2023-04-22T01:42:46;98433.83;;;21.76;40.44
14966;BME280;7577;45.226;5.798;2023-04-22T01:45:17;98419.61;;;21.72;40.45
14966;BME280;7577;45.226;5.798;2023-04-22T01:47:47;98430.13;;;21.72;40.48
14966;BME280;7577;45.226;5.798;2023-04-22T01:50:17;98426.77;;;21.73;40.44
14966;BME280;7577;45.226;5.798;2023-04-22T01:55:25;98423.08;;;21.75;40.47
14966;BME280;7577;45.226;5.798;2023-04-22T01:57:55;98434.04;;;21.71;40.48
14966;BME280;7577;45.226;5.798;2023-04-22T02:00:25;98434.04;;;21.71;40.48
14966;BME280;7577;45.226;5.798;2023-04-22T02:02:55;98429.88;;;21.71;40.47
14966;BME280;7577;45.226;5.798;2023-04-22T02:05:26;98431.64;;;21.70;40.47
14966;BME280;7577;45.226;5.798;2023-04-22T02:10:34;98429.09;;;21.71;40.48
14966;BME280;7577;45.226;5.798;2023-04-22T02:13:04;98435.20;;;21.70;40.49
14966;BME280;7577;45.226;5.798;2023-04-22T02:18:16;98436.25;;;21.72;40.42
14966;BME280;7577;45.226;5.798;2023-04-22T02:23:24;98437.19;;;21.70;40.43
14966;BME280;7577;45.226;5.798;2023-04-22T02:25:55;98445.00;;;21.68;40.44
14966;BME280;7577;45.226;5.798;2023-04-22T02:31:07;98443.52;;;21.70;40.41
14966;BME280;7577;45.226;5.798;2023-04-22T02:33:37;98437.02;;;21.66;40.45
14966;BME280;7577;45.226;5.798;2023-04-22T02:36:08;98440.27;;;21.68;40.41
14966;BME280;7577;45.226;5.798;2023-04-22T02:41:22;98429.75;;;21.68;40.36
14966;BME280;7577;45.226;5.798;2023-04-22T02:43:52;98427.09;;;21.65;40.35
14966;BME280;7577;45.226;5.798;2023-04-22T02:48:59;98421.21;;;21.67;40.29
14966;BME280;7577;45.226;5.798;2023-04-22T02:51:29;98426.28;;;21.65;40.25
14966;BME280;7577;45.226;5.798;2023-04-22T02:54:00;98430.44;;;21.65;40.25
14966;BME280;7577;45.226;5.798;2023-04-22T02:56:30;98423.06;;;21.63;40.22
14966;BME280;7577;45.226;5.798;2023-04-22T02:59:01;98432.42;;;21.64;40.22
14966;BME280;7577;45.226;5.798;2023-04-22T03:04:09;98418.91;;;21.63;40.20
14966;BME280;7577;45.226;5.798;2023-04-22T03:06:39;98428.13;;;21.61;40.18
14966;BME280;7577;45.226;5.798;2023-04-22T03:09:10;98419.48;;;21.62;40.11
14966;BME280;7577;45.226;5.798;2023-04-22T03:11:40;98423.53;;;21.59;40.11
14966;BME280;7577;45.226;5.798;2023-04-22T03:14:10;98432.67;;;21.59;40.10
14966;BME280;7577;45.226;5.798;2023-04-22T03:16:40;98429.89;;;21.59;40.07
14966;BME280;7577;45.226;5.798;2023-04-22T03:21:48;98416.83;;;21.60;40.10
14966;BME280;7577;45.226;5.798;2023-04-22T03:24:18;98438.89;;;21.56;40.18
14966;BME280;7577;45.226;5.798;2023-04-22T03:26:48;98419.72;;;21.57;40.21
14966;BME280;7577;45.226;5.798;2023-04-22T03:31:56;98415.44;;;21.60;40.30
14966;BME280;7577;45.226;5.798;2023-04-22T03:34:26;98421.11;;;21.57;40.35
14966;BME280;7577;45.226;5.798;2023-04-22T03:36:56;98420.66;;;21.55;40.46
14966;BME280;7577;45.226;5.798;2023-04-22T03:39:26;98422.05;;;21.55;40.49
14966;BME280;7577;45.226;5.798;2023-04-22T03:41:57;98415.68;;;21.55;40.52
14966;BME280;7577;45.226;5.798;2023-04-22T03:44:27;98424.56;;;21.54;40.59
14966;BME280;7577;45.226;5.798;2023-04-22T03:46:57;98424.34;;;21.53;40.65
14966;BME280;7577;45.226;5.798;2023-04-22T03:49:27;98427.11;;;21.53;40.68
14966;BME280;7577;45.226;5.798;2023-04-22T03:54:35;98416.50;;;21.55;40.77
14966;BME280;7577;45.226;5.798;2023-04-22T03:57:05;98429.66;;;21.52;40.84
14966;BME280;7577;45.226;5.798;2023-04-22T03:59:35;98425.84;;;21.51;40.93
14966;BME280;7577;45.226;5.798;2023-04-22T04:02:05;98425.84;;;21.51;40.97
14966;BME280;7577;45.226;5.798;2023-04-22T04:04:36;98428.39;;;21.50;41.00
14966;BME280;7577;45.226;5.798;2023-04-22T04:07:07;98425.06;;;21.50;41.06
14966;BME280;7577;45.226;5.798;2023-04-22T04:09:37;98427.23;;;21.51;41.13
14966;BME280;7577;45.226;5.798;2023-04-22T04:12:08;98434.16;;;21.51;41.14
14966;BME280;7577;45.226;5.798;2023-04-22T04:14:38;98432.20;;;21.51;41.18
14966;BME280;7577;45.226;5.798;2023-04-22T04:17:09;98427.83;;;21.50;41.22
14966;BME280;7577;45.226;5.798;2023-04-22T04:22:19;98421.34;;;21.52;41.28
14966;BME280;7577;45.226;5.798;2023-04-22T04:27:27;98421.91;;;21.52;41.40
14966;BME280;7577;45.226;5.798;2023-04-22T04:32:35;98423.30;;;21.52;41.51
14966;BME280;7577;45.226;5.798;2023-04-22T04:35:07;98435.77;;;21.52;41.51
14966;BME280;7577;45.226;5.798;2023-04-22T04:37:39;98439.70;;;21.51;41.54
14966;BME280;7577;45.226;5.798;2023-04-22T04:42:52;98421.13;;;21.51;41.87
14966;BME280;7577;45.226;5.798;2023-04-22T04:48:01;98425.60;;;21.56;41.72
14966;BME280;7577;45.226;5.798;2023-04-22T04:50:32;98440.41;;;21.54;41.78
14966;BME280;7577;45.226;5.798;2023-04-22T04:53:02;98438.08;;;21.56;41.89
14966;BME280;7577;45.226;5.798;2023-04-22T04:58:13;98438.21;;;21.59;41.86
14966;BME280;7577;45.226;5.798;2023-04-22T05:00:43;98443.50;;;21.58;41.93
14966;BME280;7577;45.226;5.798;2023-04-22T05:03:13;98436.23;;;21.60;41.99
14966;BME280;7577;45.226;5.798;2023-04-22T05:05:44;98449.73;;;21.61;42.09
14966;BME280;7577;45.226;5.798;2023-04-22T05:08:16;98452.06;;;21.59;42.21
14966;BME280;7577;45.226;5.798;2023-04-22T05:10:46;98464.98;;;21.61;42.15
14966;BME280;7577;45.226;5.798;2023-04-22T05:13:16;98456.55;;;21.64;42.27
14966;BME280;7577;45.226;5.798;2023-04-22T05:15:46;98468.23;;;21.63;42.37
14966;BME280;7577;45.226;5.798;2023-04-22T05:20:55;98462.56;;;21.66;42.46
14966;BME280;7577;45.226;5.798;2023-04-22T05:23:26;98484.87;;;21.63;42.59
14966;BME280;7577;45.226;5.798;2023-04-22T05:28:36;98468.25;;;21.69;43.03
14966;BME280;7577;45.226;5.798;2023-04-22T05:33:45;98492.52;;;21.72;43.29
14966;BME280;7577;45.226;5.798;2023-04-22T05:36:15;98499.66;;;21.73;43.03
14966;BME280;7577;45.226;5.798;2023-04-22T05:38:45;98497.81;;;21.77;43.05
14966;BME280;7577;45.226;5.798;2023-04-22T05:41:15;98492.61;;;21.76;43.13
14966;BME280;7577;45.226;5.798;2023-04-22T05:43:45;98505.53;;;21.78;43.04
14966;BME280;7577;45.226;5.798;2023-04-22T05:46:15;98500.13;;;21.81;43.43
14966;BME280;7577;45.226;5.798;2023-04-22T05:48:45;98512.70;;;21.85;43.69
14966;BME280;7577;45.226;5.798;2023-04-22T05:51:16;98503.92;;;21.89;44.17
14966;BME280;7577;45.226;5.798;2023-04-22T05:53:46;98518.95;;;21.88;44.36
14966;BME280;7577;45.226;5.798;2023-04-22T05:58:54;98530.14;;;21.91;44.25
14966;BME280;7577;45.226;5.798;2023-04-22T06:01:25;98530.27;;;21.89;44.13
14966;BME280;7577;45.226;5.798;2023-04-22T06:03:55;98526.33;;;21.90;43.89
14966;BME280;7577;45.226;5.798;2023-04-22T06:06:25;98522.98;;;21.90;43.93
14966;BME280;7577;45.226;5.798;2023-04-22T06:08:55;98536.39;;;21.94;43.81
14966;BME280;7577;45.226;5.798;2023-04-22T06:11:26;98538.56;;;21.95;43.85
14966;BME280;7577;45.226;5.798;2023-04-22T06:16:34;98542.26;;;21.99;43.99
14966;BME280;7577;45.226;5.798;2023-04-22T06:19:04;98545.97;;;21.97;43.97
14966;BME280;7577;45.226;5.798;2023-04-22T06:21:35;98557.29;;;21.98;43.91
14966;BME280;7577;45.226;5.798;2023-04-22T06:26:48;98571.48;;;22.02;43.87
14966;BME280;7577;45.226;5.798;2023-04-22T06:29:19;98562.59;;;22.03;43.82
14966;BME280;7577;45.226;5.798;2023-04-22T06:31:50;98568.97;;;22.03;43.85
14966;BME280;7577;45.226;5.798;2023-04-22T06:34:21;98581.89;;;22.05;43.76
14966;BME280;7577;45.226;5.798;2023-04-22T06:36:51;98572.06;;;22.08;43.77
14966;BME280;7577;45.226;5.798;2023-04-22T06:39:22;98576.92;;;22.11;43.69
14966;BME280;7577;45.226;5.798;2023-04-22T06:41:52;98569.87;;;22.13;43.73
14966;BME280;7577;45.226;5.798;2023-04-22T06:44:22;98564.42;;;22.17;43.70
14966;BME280;7577;45.226;5.798;2023-04-22T06:46:53;98570.22;;;22.18;43.65
14966;BME280;7577;45.226;5.798;2023-04-22T06:49:24;98567.89;;;22.20;43.66
14966;BME280;7577;45.226;5.798;2023-04-22T06:51:53;98569.50;;;22.21;43.64
14966;BME280;7577;45.226;5.798;2023-04-22T06:54:24;98571.70;;;22.22;43.68
14966;BME280;7577;45.226;5.798;2023-04-22T06:56:54;98575.53;;;22.23;43.69
14966;BME280;7577;45.226;5.798;2023-04-22T06:59:25;98572.98;;;22.24;43.68
14966;BME280;7577;45.226;5.798;2023-04-22T07:01:55;98584.08;;;22.24;43.68
14966;BME280;7577;45.226;5.798;2023-04-22T07:04:25;98578.18;;;22.26;43.68
14966;BME280;7577;45.226;5.798;2023-04-22T07:06:57;98585.34;;;22.27;43.62
14966;BME280;7577;45.226;5.798;2023-04-22T07:09:27;98584.52;;;22.26;43.63
14966;BME280;7577;45.226;5.798;2023-04-22T07:14:39;98580.36;;;22.26;43.67
14966;BME280;7577;45.226;5.798;2023-04-22T07:17:09;98584.08;;;22.24;43.60
14966;BME280;7577;45.226;5.798;2023-04-22T07:19:40;98592.40;;;22.24;43.58
14966;BME280;7577;45.226;5.798;2023-04-22T07:24:51;98583.95;;;22.27;43.63
14966;BME280;7577;45.226;5.798;2023-04-22T07:27:21;98577.14;;;22.24;43.59
14966;BME280;7577;45.226;5.798;2023-04-22T07:29:52;98588.68;;;22.26;43.56
14966;BME280;7577;45.226;5.798;2023-04-22T07:32:22;98589.28;;;22.26;43.55
14966;BME280;7577;45.226;5.798;2023-04-22T07:34:52;98579.56;;;22.26;43.52
14966;BME280;7577;45.226;5.798;2023-04-22T07:37:22;98595.17;;;22.24;43.54
14966;BME280;7577;45.226;5.798;2023-04-22T07:39:52;98601.77;;;22.26;43.50
14966;BME280;7577;45.226;5.798;2023-04-22T07:42:22;98601.17;;;22.26;43.52
14966;BME280;7577;45.226;5.798;2023-04-22T07:44:52;98596.22;;;22.26;43.51
14966;BME280;7577;45.226;5.798;2023-04-22T07:47:22;98592.40;;;22.24;43.49
14966;BME280;7577;45.226;5.798;2023-04-22T07:49:52;98598.73;;;22.24;43.51
14966;BME280;7577;45.226;5.798;2023-04-22T07:52:22;98604.66;;;22.23;43.52
14966;BME280;7577;45.226;5.798;2023-04-22T07:54:53;98600.84;;;22.22;43.53
14966;BME280;7577;45.226;5.798;2023-04-22T07:57:24;98604.52;;;22.19;43.56
14966;BME280;7577;45.226;5.798;2023-04-22T07:59:54;98606.73;;;22.20;43.55
14966;BME280;7577;45.226;5.798;2023-04-22T08:02:24;98607.56;;;22.21;43.51
14966;BME280;7577;45.226;5.798;2023-04-22T08:04:54;98599.80;;;22.20;43.52
14966;BME280;7577;45.226;5.798;2023-04-22T08:07:25;98603.14;;;22.19;43.52
14966;BME280;7577;45.226;5.798;2023-04-22T08:09:55;98603.52;;;22.18;43.49
14966;BME280;7577;45.226;5.798;2023-04-22T08:12:25;98607.08;;;22.18;43.51
14966;BME280;7577;45.226;5.798;2023-04-22T08:14:55;98617.95;;;22.18;43.51
14966;BME280;7577;45.226;5.798;2023-04-22T08:20:06;98617.13;;;22.17;43.54
14966;BME280;7577;45.226;5.798;2023-04-22T08:22:37;98623.84;;;22.16;43.52
14966;BME280;7577;45.226;5.798;2023-04-22T08:27:46;98619.69;;;22.16;43.57
14966;BME280;7577;45.226;5.798;2023-04-22T08:30:16;98629.17;;;22.15;43.55
14966;BME280;7577;45.226;5.798;2023-04-22T08:32:46;98628.83;;;22.17;43.54
14966;BME280;7577;45.226;5.798;2023-04-22T08:35:17;98626.05;;;22.17;43.52
14966;BME280;7577;45.226;5.798;2023-04-22T08:37:47;98610.80;;;22.17;43.54
14966;BME280;7577;45.226;5.798;2023-04-22T08:40:17;98606.86;;;22.18;43.57
14966;BME280;7577;45.226;5.798;2023-04-22T08:42:48;98600.73;;;22.18;43.54
14966;BME280;7577;45.226;5.798;2023-04-22T08:45:20;98615.63;;;22.19;43.52
14966;BME280;7577;45.226;5.798;2023-04-22T08:47:52;98608.34;;;22.21;43.52
14966;BME280;7577;45.226;5.798;2023-04-22T08:50:24;98609.95;;;22.22;43.52
14966;BME280;7577;45.226;5.798;2023-04-22T08:52:55;98616.11;;;22.22;43.50
14966;BME280;7577;45.226;5.798;2023-04-22T08:55:26;98608.13;;;22.20;43.52
14966;BME280;7577;45.226;5.798;2023-04-22T08:57:57;98608.34;;;22.21;43.50
14966;BME280;7577;45.226;5.798;2023-04-22T09:00:28;98597.25;;;22.21;43.52
14966;BME280;7577;45.226;5.798;2023-04-22T09:03:00;98596.08;;;22.22;43.54
14966;BME280;7577;45.226;5.798;2023-04-22T09:05:32;98604.66;;;22.23;43.54
14966;BME280;7577;45.226;5.798;2023-04-22T09:08:03;98598.52;;;22.23;43.55
14966;BME280;7577;45.226;5.798;2023-04-22T09:10:37;98595.73;;;22.23;43.56
14966;BME280;7577;45.226;5.798;2023-04-22T09:13:09;98601.88;;;22.23;43.55
14966;BME280;7577;45.226;5.798;2023-04-22T09:15:41;98597.95;;;22.24;43.56
14966;BME280;7577;45.226;5.798;2023-04-22T09:18:11;98586.38;;;22.22;43.57
14966;BME280;7577;45.226;5.798;2023-04-22T09:20:43;98592.40;;;22.24;43.57
14966;BME280;7577;45.226;5.798;2023-04-22T09:23:15;98592.84;;;22.26;43.52
14966;BME280;7577;45.226;5.798;2023-04-22T09:28:23;98588.91;;;22.33;43.48
14966;BME280;7577;45.226;5.798;2023-04-22T09:30:53;98583.36;;;22.33;43.44
14966;BME280;7577;45.226;5.798;2023-04-22T09:33:25;98583.80;;;22.35;43.42
14966;BME280;7577;45.226;5.798;2023-04-22T09:35:56;98588.56;;;22.35;43.44
14966;BME280;7577;45.226;5.798;2023-04-22T09:38:29;98593.17;;;22.37;43.41
14966;BME280;7577;45.226;5.798;2023-04-22T09:40:59;98580.69;;;22.37;43.42
14966;BME280;7577;45.226;5.798;2023-04-22T09:43:30;98590.05;;;22.38;43.39
14966;BME280;7577;45.226;5.798;2023-04-22T09:46:01;98585.55;;;22.40;43.37
14966;BME280;7577;45.226;5.798;2023-04-22T09:51:16;98571.89;;;22.41;43.36
14966;BME280;7577;45.226;5.798;2023-04-22T09:53:56;98575.27;;;22.40;43.38
14966;BME280;7577;45.226;5.798;2023-04-22T09:56:47;98569.94;;;22.41;43.37
14966;BME280;7577;45.226;5.798;2023-04-22T09:59:21;98578.48;;;22.42;43.34
14966;BME280;7577;45.226;5.798;2023-04-22T10:01:54;98574.77;;;22.44;43.30
14966;BME280;7577;45.226;5.798;2023-04-22T10:04:24;98568.64;;;22.45;43.29
14966;BME280;7577;45.226;5.798;2023-04-22T10:06:54;98563.34;;;22.46;43.29
14966;BME280;7577;45.226;5.798;2023-04-22T10:09:25;98569.72;;;22.46;43.28
14966;BME280;7577;45.226;5.798;2023-04-22T10:11:56;98569.38;;;22.48;43.25
14966;BME280;7577;45.226;5.798;2023-04-22T10:14:27;98569.81;;;22.50;43.21
14966;BME280;7577;45.226;5.798;2023-04-22T10:16:59;98557.20;;;22.52;43.17
14966;BME280;7577;45.226;5.798;2023-04-22T10:19:32;98561.83;;;22.54;43.16
14966;BME280;7577;45.226;5.798;2023-04-22T10:22:04;98551.77;;;22.56;43.13
14966;BME280;7577;45.226;5.798;2023-04-22T10:24:36;98550.95;;;22.55;43.15
14966;BME280;7577;45.226;5.798;2023-04-22T10:29:44;98557.07;;;22.61;43.11
14966;BME280;7577;45.226;5.798;2023-04-22T10:35:13;98548.14;;;22.61;43.09
14966;BME280;7577;45.226;5.798;2023-04-22T10:37:45;98550.92;;;22.61;43.04
14966;BME280;7577;45.226;5.798;2023-04-22T10:40:19;98559.72;;;22.63;42.99
14966;BME280;7577;45.226;5.798;2023-04-22T10:42:51;98546.05;;;22.64;42.95
14966;BME280;7577;45.226;5.798;2023-04-22T10:45:25;98550.91;;;22.67;42.94
14966;BME280;7577;45.226;5.798;2023-04-22T10:47:56;98541.20;;;22.67;42.89
14966;BME280;7577;45.226;5.798;2023-04-22T10:50:29;98541.20;;;22.67;42.88
14966;BME280;7577;45.226;5.798;2023-04-22T10:53:35;98539.08;;;22.76;42.61
14966;BME280;7577;45.226;5.798;2023-04-22T10:58:27;98532.17;;;22.64;42.37
14966;BME280;7577;45.226;5.798;2023-04-22T11:00:58;98529.18;;;22.63;42.41
14966;BME280;7577;45.226;5.798;2023-04-22T11:03:30;98525.80;;;22.64;42.47
14966;BME280;7577;45.226;5.798;2023-04-22T11:06:18;98524.41;;;22.64;42.35
14966;BME280;7577;45.226;5.798;2023-04-22T11:08:51;98521.64;;;22.64;42.26
14966;BME280;7577;45.226;5.798;2023-04-22T11:11:21;98528.36;;;22.63;42.13
14966;BME280;7577;45.226;5.798;2023-04-22T11:13:51;98519.69;;;22.64;42.10
14966;BME280;7577;45.226;5.798;2023-04-22T11:16:22;98511.80;;;22.66;42.04
14966;BME280;7577;45.226;5.798;2023-04-22T11:18:54;98510.30;;;22.69;42.03
14966;BME280;7577;45.226;5.798;2023-04-22T11:21:25;98507.15;;;22.70;42.00
14966;BME280;7577;45.226;5.798;2023-04-22T11:26:34;98503.89;;;22.74;41.95
14966;BME280;7577;45.226;5.798;2023-04-22T11:29:05;98506.45;;;22.73;41.95
14966;BME280;7577;45.226;5.798;2023-04-22T11:31:36;98506.10;;;22.75;41.91
14966;BME280;7577;45.226;5.798;2023-04-22T11:34:08;98500.20;;;22.76;41.88
14966;BME280;7577;45.226;5.798;2023-04-22T11:36:39;98499.37;;;22.76;41.84
14966;BME280;7577;45.226;5.798;2023-04-22T11:39:10;98511.66;;;22.75;41.85
14966;BME280;7577;45.226;5.798;2023-04-22T11:41:43;98504.93;;;22.76;41.81
14966;BME280;7577;45.226;5.798;2023-04-22T11:44:14;98506.10;;;22.75;41.77
14966;BME280;7577;45.226;5.798;2023-04-22T11:49:26;98500.33;;;22.74;41.57
14966;BME280;7577;45.226;5.798;2023-04-22T11:51:58;98490.73;;;22.71;41.58
14966;BME280;7577;45.226;5.798;2023-04-22T11:57:10;98490.97;;;22.66;41.39
14966;BME280;7577;45.226;5.798;2023-04-22T11:59:42;98482.89;;;22.67;41.42
14966;BME280;7577;45.226;5.798;2023-04-22T12:04:51;98485.98;;;22.72;41.49
14966;BME280;7577;45.226;5.798;2023-04-22T12:07:21;98479.85;;;22.72;41.51
14966;BME280;7577;45.226;5.798;2023-04-22T12:09:54;98479.25;;;22.73;41.48
14966;BME280;7577;45.226;5.798;2023-04-22T12:12:26;98480.89;;;22.74;41.50
14966;BME280;7577;45.226;5.798;2023-04-22T12:14:56;98480.42;;;22.72;41.57
14966;BME280;7577;45.226;5.798;2023-04-22T12:20:06;98482.15;;;22.76;41.65
14966;BME280;7577;45.226;5.798;2023-04-22T12:22:37;98480.64;;;22.73;41.80
14966;BME280;7577;45.226;5.798;2023-04-22T12:25:09;98474.30;;;22.72;41.92
14966;BME280;7577;45.226;5.798;2023-04-22T12:27:39;98471.73;;;22.73;42.01
14966;BME280;7577;45.226;5.798;2023-04-22T12:32:48;98476.25;;;22.72;42.21
14966;BME280;7577;45.226;5.798;2023-04-22T12:35:19;98471.19;;;22.68;42.30
14966;BME280;7577;45.226;5.798;2023-04-22T12:37:50;98473.88;;;22.64;42.41
14966;BME280;7577;45.226;5.798;2023-04-22T12:40:21;98475.61;;;22.63;42.52
14966;BME280;7577;45.226;5.798;2023-04-22T12:42:51;98474.57;;;22.61;42.57
14966;BME280;7577;45.226;5.798;2023-04-22T12:47:59;98460.69;;;22.61;42.65
14966;BME280;7577;45.226;5.798;2023-04-22T12:53:08;98462.42;;;22.60;43.16
14966;BME280;7577;45.226;5.798;2023-04-22T12:58:16;98462.34;;;22.56;43.67
14966;BME280;7577;45.226;5.798;2023-04-22T13:00:46;98456.66;;;22.59;43.67
14966;BME280;7577;45.226;5.798;2023-04-22T13:03:16;98465.89;;;22.63;43.47
14966;BME280;7577;45.226;5.798;2023-04-22T13:05:46;98469.70;;;22.64;43.42
14966;BME280;7577;45.226;5.798;2023-04-22T13:08:18;98477.09;;;22.66;43.44
14966;BME280;7577;45.226;5.798;2023-04-22T13:10:48;98472.83;;;22.69;43.37
14966;BME280;7577;45.226;5.798;2023-04-22T13:13:18;98478.59;;;22.70;43.28
14966;BME280;7577;45.226;5.798;2023-04-22T13:15:49;98470.14;;;22.72;43.17
14966;BME280;7577;45.226;5.798;2023-04-22T13:18:22;98469.19;;;22.74;43.15
14966;BME280;7577;45.226;5.798;2023-04-22T13:20:52;98469.87;;;22.77;43.10
14966;BME280;7577;45.226;5.798;2023-04-22T13:23:24;98459.93;;;22.76;43.09
14966;BME280;7577;45.226;5.798;2023-04-22T13:25:56;98458.62;;;22.80;43.00
14966;BME280;7577;45.226;5.798;2023-04-22T13:28:26;98458.28;;;22.81;42.93
14966;BME280;7577;45.226;5.798;2023-04-22T13:30:56;98462.31;;;22.84;42.96
14966;BME280;7577;45.226;5.798;2023-04-22T13:33:26;98458.97;;;22.84;42.91
14966;BME280;7577;45.226;5.798;2023-04-22T13:35:57;98454.42;;;22.86;42.84
14966;BME280;7577;45.226;5.798;2023-04-22T13:38:26;98450.85;;;22.85;42.82
14966;BME280;7577;45.226;5.798;2023-04-22T13:40:57;98447.26;;;22.85;42.81
14966;BME280;7577;45.226;5.798;2023-04-22T13:43:27;98442.66;;;22.83;42.79
14966;BME280;7577;45.226;5.798;2023-04-22T13:45:58;98440.01;;;22.80;42.84
14966;BME280;7577;45.226;5.798;2023-04-22T13:48:28;98430.64;;;22.79;42.85
14966;BME280;7577;45.226;5.798;2023-04-22T13:50:58;98429.03;;;22.78;42.86
14966;BME280;7577;45.226;5.798;2023-04-22T13:53:29;98427.40;;;22.77;42.87
14966;BME280;7577;45.226;5.798;2023-04-22T13:55:59;98432.52;;;22.75;42.87
14966;BME280;7577;45.226;5.798;2023-04-22T13:58:29;98424.75;;;22.74;42.84
14966;BME280;7577;45.226;5.798;2023-04-22T14:01:00;98434.25;;;22.73;42.86
14966;BME280;7577;45.226;5.798;2023-04-22T14:03:30;98424.31;;;22.72;42.82
14966;BME280;7577;45.226;5.798;2023-04-22T14:06:00;98420.38;;;22.73;42.80
14966;BME280;7577;45.226;5.798;2023-04-22T14:08:31;98416.55;;;22.72;42.83
14966;BME280;7577;45.226;5.798;2023-04-22T14:11:01;98428.27;;;22.71;42.84
14966;BME280;7577;45.226;5.798;2023-04-22T14:13:32;98416.13;;;22.70;42.82
14966;BME280;7577;45.226;5.798;2023-04-22T14:16:03;98421.13;;;22.64;42.89
14966;BME280;7577;45.226;5.798;2023-04-22T14:21:13;98417.66;;;22.61;42.97
14966;BME280;7577;45.226;5.798;2023-04-22T14:23:43;98417.00;;;22.58;43.00
14966;BME280;7577;45.226;5.798;2023-04-22T14:26:14;98422.42;;;22.61;43.01
14966;BME280;7577;45.226;5.798;2023-04-22T14:28:44;98419.65;;;22.61;42.98
14966;BME280;7577;45.226;5.798;2023-04-22T14:31:15;98418.02;;;22.60;42.91
14966;BME280;7577;45.226;5.798;2023-04-22T14:33:45;98411.59;;;22.56;42.95
14966;BME280;7577;45.226;5.798;2023-04-22T14:36:16;98416.89;;;22.55;42.97
14966;BME280;7577;45.226;5.798;2023-04-22T14:38:46;98416.89;;;22.55;42.97
14966;BME280;7577;45.226;5.798;2023-04-22T14:41:17;98424.78;;;22.53;42.93
14966;BME280;7577;45.226;5.798;2023-04-22T14:43:49;98417.84;;;22.53;42.94
14966;BME280;7577;45.226;5.798;2023-04-22T14:46:20;98421.05;;;22.55;42.88
14966;BME280;7577;45.226;5.798;2023-04-22T14:48:49;98430.77;;;22.55;42.84
14966;BME280;7577;45.226;5.798;2023-04-22T14:51:21;98427.77;;;22.54;42.83
14966;BME280;7577;45.226;5.798;2023-04-22T14:53:51;98425.81;;;22.54;42.76
14966;BME280;7577;45.226;5.798;2023-04-22T14:56:21;98425.21;;;22.55;42.74
14966;BME280;7577;45.226;5.798;2023-04-22T14:58:52;98421.05;;;22.55;42.69
14966;BME280;7577;45.226;5.798;2023-04-22T15:01:22;98421.43;;;22.53;42.62
14966;BME280;7577;45.226;5.798;2023-04-22T15:06:30;98430.89;;;22.52;42.62
14966;BME280;7577;45.226;5.798;2023-04-22T15:09:00;98428.16;;;22.46;42.72
14966;BME280;7577;45.226;5.798;2023-04-22T15:11:31;98418.67;;;22.47;42.65
14966;BME280;7577;45.226;5.798;2023-04-22T15:14:01;98426.20;;;22.47;42.62
14966;BME280;7577;45.226;5.798;2023-04-22T15:16:31;98422.83;;;22.47;42.61
14966;BME280;7577;45.226;5.798;2023-04-22T15:19:01;98435.92;;;22.47;42.55
14966;BME280;7577;45.226;5.798;2023-04-22T15:21:31;98432.33;;;22.46;42.52
14966;BME280;7577;45.226;5.798;2023-04-22T15:24:01;98432.64;;;22.45;42.70
14966;BME280;7577;45.226;5.798;2023-04-22T15:26:31;98437.31;;;22.47;42.64
14966;BME280;7577;45.226;5.798;2023-04-22T15:29:02;98436.59;;;22.44;42.62
14966;BME280;7577;45.226;5.798;2023-04-22T15:31:32;98434.60;;;22.44;42.58
14966;BME280;7577;45.226;5.798;2023-04-22T15:34:02;98434.38;;;22.43;42.54
14966;BME280;7577;45.226;5.798;2023-04-22T15:36:34;98427.22;;;22.42;42.55
14966;BME280;7577;45.226;5.798;2023-04-22T15:39:04;98440.53;;;22.43;42.54